Time;durP1;ratioP1;P1;durP2;ratioP2;P2;SDS_P1;SDS_P2;PMS_P1;PMS_P2;Temp;Humidity;BMP_temperature;BMP_pressure;BME280_temperature;BME280_humidity;BME280_pressure;Samples;Min_cycle;Max_cycle;Signal;HPM_P1;HPM_P2
2022/03/08 00:00:22;;;;;;;31.35;21.00;;;7.30;85.30;;;;;;5040598;28;20059;-65
2022/03/08 00:02:48;;;;;;;29.83;20.10;;;7.20;84.90;;;;;;5040469;28;20043;-65
2022/03/08 00:05:14;;;;;;;34.20;21.35;;;7.20;84.40;;;;;;5040542;28;20029;-65
2022/03/08 00:07:41;;;;;;;31.40;20.40;;;7.10;84.70;;;;;;5042223;28;20110;-65
2022/03/08 00:10:08;;;;;;;29.42;20.17;;;7.00;85.00;;;;;;5041922;28;20025;-65
2022/03/08 00:12:35;;;;;;;29.15;19.02;;;7.00;85.30;;;;;;5035867;28;20033;-65
2022/03/08 00:15:01;;;;;;;31.92;19.85;;;7.10;86.40;;;;;;5037768;28;20049;-65
2022/03/08 00:17:26;;;;;;;31.23;20.17;;;7.00;87.40;;;;;;5035624;28;20032;-65
2022/03/08 00:19:52;;;;;;;28.90;19.73;;;7.00;87.50;;;;;;5032547;28;20055;-65
2022/03/08 00:22:18;;;;;;;31.98;20.80;;;7.10;87.60;;;;;;5037772;28;20074;-67
2022/03/08 00:24:44;;;;;;;32.03;21.92;;;7.10;87.60;;;;;;5040794;28;20112;-65
2022/03/08 00:27:13;;;;;;;31.75;20.98;;;7.00;88.00;;;;;;5039649;28;20086;-66
2022/03/08 00:29:38;;;;;;;33.35;21.42;;;7.20;87.30;;;;;;5036773;28;20098;-66
2022/03/08 00:32:05;;;;;;;33.63;21.17;;;7.30;87.40;;;;;;5036343;28;20036;-66
2022/03/08 00:34:31;;;;;;;32.70;21.50;;;7.50;87.10;;;;;;5036394;28;20036;-66
2022/03/08 00:36:57;;;;;;;29.25;19.88;;;7.50;88.30;;;;;;5040052;28;20192;-66
2022/03/08 00:39:22;;;;;;;32.60;20.95;;;7.60;88.80;;;;;;5041398;28;20842;-66
2022/03/08 00:41:48;;;;;;;31.65;20.48;;;7.50;89.80;;;;;;5037161;28;20446;-66
2022/03/08 00:44:14;;;;;;;30.55;19.67;;;7.60;89.40;;;;;;5036695;28;20048;-66
2022/03/08 00:46:39;;;;;;;30.20;19.73;;;7.50;90.00;;;;;;5041107;28;20119;-67
2022/03/08 00:49:05;;;;;;;30.30;19.38;;;7.60;90.10;;;;;;5039218;28;20515;-67
2022/03/08 00:51:31;;;;;;;32.30;20.98;;;7.60;89.30;;;;;;5036413;28;20086;-67
2022/03/08 00:53:57;;;;;;;29.77;19.55;;;7.70;89.40;;;;;;5035362;28;20035;-67
2022/03/08 00:56:23;;;;;;;29.25;20.45;;;7.70;89.20;;;;;;5037927;28;20060;-69
2022/03/08 00:58:49;;;;;;;35.90;22.45;;;7.40;90.10;;;;;;5038484;28;20037;-67
2022/03/08 01:01:14;;;;;;;31.15;20.70;;;7.30;90.80;;;;;;5038070;28;20031;-66
2022/03/08 01:03:40;;;;;;;31.83;22.52;;;7.20;91.20;;;;;;5059056;28;20033;-67
2022/03/08 01:06:06;;;;;;;31.05;20.58;;;7.30;91.10;;;;;;5043156;28;20464;-68
2022/03/08 01:08:32;;;;;;;33.53;22.65;;;7.30;91.20;;;;;;5043532;28;20078;-68
2022/03/08 01:10:57;;;;;;;30.63;19.95;;;7.30;91.30;;;;;;5049895;28;20021;-67
2022/03/08 01:13:24;;;;;;;32.53;20.92;;;7.30;91.40;;;;;;5047443;28;20041;-68
2022/03/08 01:15:50;;;;;;;32.15;21.17;;;7.20;90.90;;;;;;5049636;28;20033;-68
2022/03/08 01:18:16;;;;;;;32.55;20.80;;;7.20;90.90;;;;;;5047740;28;20029;-69
2022/03/08 01:20:42;;;;;;;31.63;20.58;;;7.30;91.40;;;;;;5048627;28;20485;-68
2022/03/08 01:23:07;;;;;;;33.03;20.48;;;7.20;91.10;;;;;;5052848;28;20118;-68
2022/03/08 01:25:34;;;;;;;30.90;20.35;;;7.20;91.40;;;;;;5051764;28;20065;-68
2022/03/08 01:27:59;;;;;;;32.08;20.85;;;7.10;91.80;;;;;;5048455;28;20363;-68
2022/03/08 01:30:26;;;;;;;32.30;21.23;;;7.20;90.90;;;;;;5050392;28;20047;-68
2022/03/08 01:32:52;;;;;;;33.15;22.27;;;7.30;90.80;;;;;;5046826;28;20025;-68
2022/03/08 01:35:18;;;;;;;32.25;20.75;;;7.20;90.70;;;;;;5050131;28;20508;-68
2022/03/08 01:37:44;;;;;;;34.15;21.27;;;7.10;90.50;;;;;;5050291;28;20029;-68
2022/03/08 01:40:14;;;;;;;30.33;20.80;;;7.10;90.90;;;;;;5046723;28;20052;-66
2022/03/08 01:42:42;;;;;;;34.60;21.77;;;7.20;91.00;;;;;;5046824;28;20412;-66
2022/03/08 01:45:09;;;;;;;35.10;22.77;;;7.30;90.90;;;;;;5047314;28;20115;-68
2022/03/08 01:47:34;;;;;;;33.60;23.88;;;7.40;90.60;;;;;;5048445;28;20512;-68
2022/03/08 01:50:00;;;;;;;34.08;22.67;;;7.40;90.60;;;;;;5051935;28;20032;-67
2022/03/08 01:52:28;;;;;;;38.63;27.50;;;7.20;90.30;;;;;;5046116;28;20035;-67
2022/03/08 01:54:54;;;;;;;43.45;30.40;;;7.10;89.90;;;;;;5050763;28;20029;-67
2022/03/08 01:57:23;;;;;;;39.97;31.67;;;7.00;90.30;;;;;;5048179;28;20515;-67
2022/03/08 01:59:50;;;;;;;48.30;37.22;;;6.90;90.50;;;;;;5046725;28;20407;-68
2022/03/08 02:02:16;;;;;;;62.33;46.70;;;6.70;90.50;;;;;;5050844;28;20029;-68
2022/03/08 02:04:41;;;;;;;66.53;54.97;;;6.70;90.60;;;;;;5049394;28;20025;-67
2022/03/08 02:07:07;;;;;;;76.53;66.20;;;6.60;90.50;;;;;;5045867;28;20037;-67
2022/03/08 02:09:33;;;;;;;104.88;92.35;;;6.60;90.80;;;;;;5047706;28;20025;-67
2022/03/08 02:11:59;;;;;;;141.88;114.63;;;6.60;90.20;;;;;;5047811;28;20448;-67
2022/03/08 02:14:27;;;;;;;171.20;136.55;;;6.60;90.20;;;;;;5050517;28;20132;-67
2022/03/08 02:16:52;;;;;;;168.02;141.23;;;6.50;90.00;;;;;;5051930;28;20096;-67
2022/03/08 02:19:18;;;;;;;160.32;141.88;;;6.40;90.40;;;;;;5046576;28;20159;-67
2022/03/08 02:21:44;;;;;;;159.00;138.13;;;6.50;90.40;;;;;;5048100;28;20055;-68
2022/03/08 02:24:10;;;;;;;163.48;141.07;;;6.50;90.10;;;;;;5045233;28;20064;-68
2022/03/08 02:26:37;;;;;;;165.15;133.55;;;6.50;90.60;;;;;;5052004;28;20405;-67
2022/03/08 02:29:05;;;;;;;154.45;133.05;;;6.60;90.40;;;;;;5046049;28;20067;-67
2022/03/08 02:31:31;;;;;;;151.88;131.27;;;6.60;90.30;;;;;;5045762;28;20245;-67
2022/03/08 02:33:57;;;;;;;145.63;129.57;;;6.60;90.00;;;;;;5044662;28;20055;-67
2022/03/08 02:36:23;;;;;;;145.40;127.78;;;6.50;90.00;;;;;;5047983;28;20057;-67
2022/03/08 02:38:49;;;;;;;139.93;120.47;;;6.70;90.20;;;;;;5050170;28;20039;-67
2022/03/08 02:41:15;;;;;;;135.70;120.00;;;6.80;90.00;;;;;;5045900;28;20036;-67
2022/03/08 02:43:41;;;;;;;147.60;123.68;;;6.80;90.30;;;;;;5053888;28;20346;-67
2022/03/08 02:46:06;;;;;;;136.30;115.78;;;6.90;90.50;;;;;;5045193;28;20040;-67
2022/03/08 02:48:32;;;;;;;134.63;111.03;;;6.80;90.50;;;;;;5046784;28;20029;-67
2022/03/08 02:50:58;;;;;;;128.48;106.70;;;6.80;90.40;;;;;;5044369;28;20041;-68
2022/03/08 02:53:24;;;;;;;124.93;104.25;;;6.90;90.30;;;;;;5050375;28;20037;-68
2022/03/08 02:55:50;;;;;;;119.50;101.85;;;6.90;89.80;;;;;;5047937;28;20043;-67
2022/03/08 02:58:16;;;;;;;114.30;102.10;;;6.90;90.30;;;;;;5045538;28;20078;-68
2022/03/08 03:00:42;;;;;;;120.10;101.35;;;7.00;90.10;;;;;;5046987;28;20518;-68
2022/03/08 03:03:08;;;;;;;116.72;97.03;;;7.00;90.30;;;;;;5045372;28;20052;-68
2022/03/08 03:05:35;;;;;;;110.47;96.28;;;7.00;90.10;;;;;;5048233;28;20045;-68
2022/03/08 03:08:02;;;;;;;115.90;98.25;;;7.00;90.40;;;;;;5050105;28;20033;-67
2022/03/08 03:10:29;;;;;;;106.63;91.57;;;7.00;90.30;;;;;;5045959;28;20526;-67
2022/03/08 03:12:55;;;;;;;109.28;89.85;;;7.10;90.50;;;;;;5044636;28;20481;-67
2022/03/08 03:15:22;;;;;;;98.03;83.25;;;7.20;90.00;;;;;;5047125;28;20504;-68
2022/03/08 03:17:49;;;;;;;92.50;81.28;;;7.20;89.10;;;;;;5046037;28;20025;-68
2022/03/08 03:20:17;;;;;;;96.03;80.18;;;7.20;89.60;;;;;;5052685;28;20029;-68
2022/03/08 03:22:43;;;;;;;84.88;70.35;;;7.30;88.90;;;;;;5044487;28;20548;-67
2022/03/08 03:25:14;;;;;;;87.22;76.35;;;7.30;89.40;;;;;;5044528;28;20026;-67
2022/03/08 03:27:40;;;;;;;85.05;69.95;;;7.30;88.40;;;;;;5047684;28;20080;-67
2022/03/08 03:30:12;;;;;;;77.10;62.90;;;7.30;87.30;;;;;;5049478;28;20032;-67
2022/03/08 03:32:42;;;;;;;68.22;53.78;;;7.30;87.90;;;;;;5047428;28;20116;-67
2022/03/08 03:35:09;;;;;;;57.85;47.47;;;7.50;87.70;;;;;;5044775;28;20382;-67
2022/03/08 03:37:35;;;;;;;67.80;51.92;;;7.70;86.20;;;;;;5046181;28;20020;-67
2022/03/08 03:40:02;;;;;;;68.93;56.80;;;7.80;85.80;;;;;;5043531;28;20025;-67
2022/03/08 03:42:28;;;;;;;69.88;56.70;;;7.70;85.70;;;;;;5048782;28;20033;-67
2022/03/08 03:44:53;;;;;;;72.07;57.60;;;7.70;85.80;;;;;;5048942;28;20055;-67
2022/03/08 03:47:19;;;;;;;83.90;63.70;;;7.50;87.10;;;;;;5046132;28;20044;-67
2022/03/08 03:49:45;;;;;;;78.35;64.07;;;7.50;87.60;;;;;;5046114;28;20601;-67
2022/03/08 03:52:11;;;;;;;77.38;64.82;;;7.40;88.10;;;;;;5043988;28;20573;-68
2022/03/08 03:54:37;;;;;;;72.45;61.50;;;7.40;87.20;;;;;;5043972;28;20055;-67
2022/03/08 03:57:03;;;;;;;78.72;60.28;;;7.40;88.60;;;;;;5050968;28;20021;-68
2022/03/08 03:59:29;;;;;;;77.53;62.22;;;7.30;89.30;;;;;;5042637;28;20069;-67
2022/03/08 04:01:54;;;;;;;76.60;60.45;;;7.30;89.50;;;;;;5050305;28;20083;-67
2022/03/08 04:04:20;;;;;;;84.68;63.88;;;7.20;89.80;;;;;;5042856;28;20033;-68
2022/03/08 04:06:46;;;;;;;78.45;66.32;;;7.20;90.10;;;;;;5043748;28;20078;-67
2022/03/08 04:09:13;;;;;;;86.35;71.45;;;7.20;90.20;;;;;;5043846;28;20030;-67
2022/03/08 04:11:39;;;;;;;90.18;69.97;;;7.20;90.40;;;;;;5046837;28;20041;-67
2022/03/08 04:14:04;;;;;;;82.45;70.00;;;7.40;90.00;;;;;;5048527;28;20502;-67
2022/03/08 04:16:30;;;;;;;81.95;70.53;;;7.30;90.00;;;;;;5044922;28;20051;-68
2022/03/08 04:18:56;;;;;;;86.10;72.70;;;7.30;90.30;;;;;;5043474;28;20408;-67
2022/03/08 04:21:22;;;;;;;82.35;68.43;;;7.40;90.20;;;;;;5043984;28;20045;-67
2022/03/08 04:23:48;;;;;;;77.22;66.28;;;7.40;90.40;;;;;;5046005;28;20029;-67
2022/03/08 04:26:13;;;;;;;86.47;64.75;;;7.40;90.60;;;;;;5048799;28;20045;-67
2022/03/08 04:28:42;;;;;;;79.90;65.18;;;7.40;90.30;;;;;;5045728;28;20075;-67
2022/03/08 04:31:08;;;;;;;80.20;66.22;;;7.30;89.80;;;;;;5042288;28;20029;-67
2022/03/08 04:33:33;;;;;;;80.88;66.93;;;7.40;89.70;;;;;;5043758;28;20096;-68
2022/03/08 04:35:59;;;;;;;80.03;62.85;;;7.40;89.40;;;;;;5043954;28;20421;-67
2022/03/08 04:38:25;;;;;;;78.95;64.20;;;7.40;88.80;;;;;;5049984;28;20040;-68
2022/03/08 04:40:51;;;;;;;81.47;61.30;;;7.40;90.00;;;;;;5048452;28;20056;-67
2022/03/08 04:43:16;;;;;;;75.40;58.92;;;7.30;90.10;;;;;;5043428;28;20044;-67
2022/03/08 04:45:42;;;;;;;72.38;55.33;;;7.30;90.20;;;;;;5044478;28;20040;-68
2022/03/08 04:48:08;;;;;;;68.45;55.03;;;7.40;90.00;;;;;;5047479;28;20037;-68
2022/03/08 04:50:34;;;;;;;70.53;55.30;;;7.40;90.10;;;;;;5053306;28;20103;-67
2022/03/08 04:52:59;;;;;;;62.42;52.70;;;7.30;90.20;;;;;;5053174;28;20322;-68
2022/03/08 04:55:25;;;;;;;62.58;52.50;;;7.30;90.50;;;;;;5049083;28;20036;-67
2022/03/08 04:57:51;;;;;;;67.45;52.78;;;7.30;90.30;;;;;;5047052;28;20029;-68
2022/03/08 05:00:17;;;;;;;70.30;54.75;;;7.40;90.50;;;;;;5049097;28;20033;-68
2022/03/08 05:02:44;;;;;;;68.88;53.88;;;7.50;90.20;;;;;;5052312;28;20026;-68
2022/03/08 05:05:13;;;;;;;62.42;50.42;;;7.50;90.00;;;;;;5054043;28;20037;-68
2022/03/08 05:07:40;;;;;;;61.92;50.42;;;7.30;89.10;;;;;;5050482;28;20403;-68
2022/03/08 05:10:09;;;;;;;65.78;50.50;;;7.30;90.40;;;;;;5046736;28;20057;-67
2022/03/08 05:12:36;;;;;;;64.15;49.70;;;7.20;90.80;;;;;;5048372;28;20041;-67
2022/03/08 05:15:05;;;;;;;63.13;45.63;;;7.30;91.00;;;;;;5034631;28;20409;-68
2022/03/08 05:17:31;;;;;;;61.95;46.28;;;7.30;90.90;;;;;;5033893;28;20034;-68
2022/03/08 05:19:57;;;;;;;64.32;47.72;;;7.40;90.70;;;;;;5027762;28;20401;-68
2022/03/08 05:22:23;;;;;;;62.00;47.58;;;7.30;90.60;;;;;;5028248;28;20049;-68
2022/03/08 05:24:49;;;;;;;59.17;45.80;;;7.20;90.90;;;;;;5029267;28;20026;-67
2022/03/08 05:27:15;;;;;;;58.15;45.33;;;7.20;90.30;;;;;;5032548;28;20049;-67
2022/03/08 05:29:40;;;;;;;56.08;43.90;;;7.20;90.90;;;;;;5028182;28;20033;-67
2022/03/08 05:32:07;;;;;;;66.80;44.05;;;7.10;90.70;;;;;;5027901;28;20037;-67
2022/03/08 05:34:33;;;;;;;58.35;42.20;;;7.20;91.10;;;;;;5027528;28;20033;-67
2022/03/08 05:36:58;;;;;;;55.45;41.25;;;7.20;90.80;;;;;;5028123;28;20080;-67
2022/03/08 05:39:24;;;;;;;50.80;38.88;;;7.20;90.80;;;;;;5033845;28;20025;-67
2022/03/08 05:41:50;;;;;;;57.63;38.65;;;7.20;91.10;;;;;;5030682;28;20037;-67
2022/03/08 05:44:16;;;;;;;56.08;38.55;;;7.10;91.50;;;;;;5027575;28;20128;-68
2022/03/08 05:46:42;;;;;;;54.28;37.25;;;7.10;91.40;;;;;;5031367;28;20041;-67
2022/03/08 05:49:08;;;;;;;52.72;37.05;;;7.10;91.30;;;;;;5025480;28;20444;-67
2022/03/08 05:51:34;;;;;;;52.85;39.20;;;7.10;91.20;;;;;;5025809;28;20032;-67
2022/03/08 05:54:00;;;;;;;51.72;38.65;;;6.90;91.60;;;;;;5033765;28;20029;-67
2022/03/08 05:56:26;;;;;;;51.53;39.00;;;6.90;91.50;;;;;;5033223;28;20037;-72
2022/03/08 05:58:51;;;;;;;52.17;38.10;;;6.90;91.60;;;;;;5032263;28;20109;-69
2022/03/08 06:01:17;;;;;;;52.40;36.80;;;6.90;91.40;;;;;;5033338;28;20033;-67
2022/03/08 06:03:43;;;;;;;55.97;38.70;;;6.80;91.30;;;;;;5033285;28;20508;-68
2022/03/08 06:06:09;;;;;;;54.00;37.33;;;6.80;91.40;;;;;;5033347;28;20049;-67
2022/03/08 06:08:35;;;;;;;52.53;37.00;;;6.80;91.50;;;;;;5027827;28;20036;-67
2022/03/08 06:11:01;;;;;;;49.10;35.72;;;6.80;91.30;;;;;;5031711;28;20508;-67
2022/03/08 06:13:27;;;;;;;49.00;35.15;;;6.80;91.30;;;;;;5041913;28;20557;-67
2022/03/08 06:15:53;;;;;;;49.92;34.83;;;6.80;91.40;;;;;;5049414;28;20121;-66
2022/03/08 06:18:18;;;;;;;54.67;35.53;;;6.80;91.00;;;;;;5053255;28;20159;-66
2022/03/08 06:20:44;;;;;;;54.25;35.00;;;6.90;91.70;;;;;;5054755;28;20489;-68
2022/03/08 06:23:10;;;;;;;48.33;33.42;;;6.90;91.40;;;;;;5054301;28;20041;-68
2022/03/08 06:25:36;;;;;;;44.53;33.60;;;6.90;91.80;;;;;;5053635;28;20052;-66
2022/03/08 06:28:02;;;;;;;50.88;36.35;;;6.90;91.70;;;;;;5047500;28;20036;-68
2022/03/08 06:30:28;;;;;;;46.13;33.28;;;6.70;91.80;;;;;;5052233;28;20029;-67
2022/03/08 06:32:54;;;;;;;48.78;33.83;;;6.90;91.90;;;;;;5047139;28;20037;-67
2022/03/08 06:35:20;;;;;;;47.63;33.58;;;6.80;91.80;;;;;;5045927;28;20092;-68
2022/03/08 06:37:46;;;;;;;47.35;33.05;;;6.90;91.70;;;;;;5051956;28;20067;-67
2022/03/08 06:40:12;;;;;;;47.63;31.83;;;6.80;91.50;;;;;;5045391;28;20026;-66
2022/03/08 06:42:38;;;;;;;50.58;33.90;;;6.90;92.20;;;;;;5045511;28;20047;-67
2022/03/08 06:45:06;;;;;;;45.50;32.40;;;7.00;91.80;;;;;;5051976;28;20485;-67
2022/03/08 06:47:32;;;;;;;51.53;33.42;;;7.00;91.80;;;;;;5053426;28;20408;-67
2022/03/08 06:49:58;;;;;;;45.83;30.92;;;7.00;91.00;;;;;;5053206;28;20025;-67
2022/03/08 06:52:24;;;;;;;49.03;33.05;;;7.20;90.70;;;;;;5054820;28;20024;-66
2022/03/08 06:54:50;;;;;;;43.83;31.17;;;7.00;91.40;;;;;;5053189;28;20025;-69
2022/03/08 06:57:16;;;;;;;45.65;32.47;;;7.10;91.60;;;;;;5053899;28;20033;-71
2022/03/08 06:59:42;;;;;;;45.40;30.75;;;7.10;91.80;;;;;;5053849;28;20040;-69
2022/03/08 07:02:08;;;;;;;45.83;30.60;;;7.20;91.90;;;;;;5053819;28;20128;-69
2022/03/08 07:04:34;;;;;;;50.85;32.00;;;7.30;91.40;;;;;;5053841;28;20047;-68
2022/03/08 07:07:01;;;;;;;48.42;32.20;;;7.30;91.40;;;;;;5052997;28;20175;-67
2022/03/08 07:09:26;;;;;;;43.47;30.00;;;7.20;92.40;;;;;;5053514;28;20108;-67
2022/03/08 07:11:52;;;;;;;44.25;30.67;;;7.20;92.70;;;;;;5054135;28;20029;-67
2022/03/08 07:14:18;;;;;;;45.17;31.95;;;7.10;91.70;;;;;;5053874;28;20444;-67
2022/03/08 07:16:45;;;;;;;47.53;30.27;;;7.20;91.80;;;;;;5053487;28;20473;-67
2022/03/08 07:19:13;;;;;;;42.70;29.88;;;7.10;91.60;;;;;;5052448;28;20457;-68
2022/03/08 07:21:42;;;;;;;44.72;29.77;;;7.20;91.70;;;;;;5051300;28;20021;-67
2022/03/08 07:24:09;;;;;;;42.88;28.50;;;7.10;91.90;;;;;;5053400;28;20385;-67
2022/03/08 07:26:34;;;;;;;43.28;28.35;;;7.20;91.90;;;;;;5054888;28;20043;-66
2022/03/08 07:29:00;;;;;;;45.60;30.23;;;7.20;91.60;;;;;;5052860;28;20025;-66
2022/03/08 07:31:26;;;;;;;40.90;28.42;;;7.30;91.90;;;;;;5052251;28;20042;-66
2022/03/08 07:33:52;;;;;;;45.25;31.00;;;7.30;91.60;;;;;;5043905;28;20108;-67
2022/03/08 07:36:18;;;;;;;47.15;30.30;;;7.30;91.90;;;;;;5046078;28;20037;-66
2022/03/08 07:38:44;;;;;;;45.28;29.65;;;7.40;91.70;;;;;;5048541;28;20031;-66
2022/03/08 07:41:10;;;;;;;42.00;29.77;;;7.40;91.40;;;;;;5045498;28;20032;-66
2022/03/08 07:43:36;;;;;;;42.17;28.10;;;7.40;91.40;;;;;;5042738;28;20033;-66
2022/03/08 07:46:04;;;;;;;41.85;28.50;;;7.50;90.90;;;;;;5046731;28;20037;-65
2022/03/08 07:48:30;;;;;;;53.78;29.00;;;7.50;90.90;;;;;;5045605;28;20116;-66
2022/03/08 07:50:56;;;;;;;41.13;28.73;;;7.50;90.80;;;;;;5048669;28;20021;-66
2022/03/08 07:53:21;;;;;;;39.53;26.20;;;7.60;90.80;;;;;;5046155;28;20051;-66
2022/03/08 07:55:47;;;;;;;45.75;29.08;;;7.60;91.00;;;;;;5048175;28;20025;-66
2022/03/08 07:58:14;;;;;;;46.40;27.48;;;7.60;90.60;;;;;;5044662;28;20041;-65
2022/03/08 08:00:41;;;;;;;40.70;28.48;;;7.70;90.70;;;;;;5043645;28;20604;-65
2022/03/08 08:03:07;;;;;;;42.90;27.95;;;7.80;90.20;;;;;;5043325;28;20032;-66
2022/03/08 08:05:34;;;;;;;43.55;28.15;;;7.80;90.00;;;;;;5045727;28;20034;-65
2022/03/08 08:08:01;;;;;;;41.60;26.45;;;7.80;90.40;;;;;;5048829;28;20060;-65
2022/03/08 08:10:27;;;;;;;44.95;27.25;;;7.90;90.00;;;;;;5046486;28;20110;-65
2022/03/08 08:12:53;;;;;;;45.63;28.10;;;7.90;88.90;;;;;;5044531;28;20497;-65
2022/03/08 08:15:18;;;;;;;45.45;29.38;;;7.80;88.90;;;;;;5042942;28;20036;-66
2022/03/08 08:17:44;;;;;;;46.85;30.25;;;7.90;89.20;;;;;;5044572;28;20104;-66
2022/03/08 08:20:11;;;;;;;48.63;29.23;;;7.90;87.70;;;;;;5046773;28;20120;-65
2022/03/08 08:22:38;;;;;;;49.70;30.33;;;8.00;87.90;;;;;;5044777;28;20051;-65
2022/03/08 08:25:05;;;;;;;46.10;28.20;;;8.00;87.80;;;;;;5043047;28;20374;-65
2022/03/08 08:27:31;;;;;;;44.75;28.98;;;8.10;87.40;;;;;;5045472;28;20120;-67
2022/03/08 08:29:57;;;;;;;49.10;28.85;;;8.20;88.40;;;;;;5042526;28;20386;-66
2022/03/08 08:32:23;;;;;;;44.55;28.38;;;8.20;88.10;;;;;;5044860;28;20121;-66
2022/03/08 08:34:49;;;;;;;42.13;27.33;;;8.20;86.90;;;;;;5046382;28;20111;-68
2022/03/08 08:37:15;;;;;;;41.78;27.08;;;8.30;87.00;;;;;;5043959;28;20123;-67
2022/03/08 08:39:41;;;;;;;41.58;28.23;;;8.40;86.40;;;;;;5045775;28;20032;-67
2022/03/08 08:42:07;;;;;;;38.08;27.15;;;8.50;85.80;;;;;;5045033;28;20035;-68
2022/03/08 08:44:33;;;;;;;41.63;27.55;;;8.50;86.60;;;;;;5045510;28;20105;-67
2022/03/08 08:46:59;;;;;;;42.88;28.23;;;8.60;85.30;;;;;;5047687;28;20539;-67
2022/03/08 08:49:25;;;;;;;43.55;28.13;;;8.70;86.30;;;;;;5045507;28;20033;-68
2022/03/08 08:51:51;;;;;;;39.75;28.00;;;8.80;86.50;;;;;;5044634;28;20061;-68
2022/03/08 08:54:18;;;;;;;38.67;25.60;;;8.90;85.40;;;;;;5045797;28;20094;-67
2022/03/08 08:56:44;;;;;;;43.20;28.55;;;8.90;83.70;;;;;;5043950;28;20026;-67
2022/03/08 08:59:10;;;;;;;40.28;27.70;;;8.90;84.50;;;;;;5048545;28;20060;-68
2022/03/08 09:01:36;;;;;;;46.97;27.70;;;8.90;84.40;;;;;;5045617;28;20029;-67
2022/03/08 09:04:03;;;;;;;40.05;26.73;;;9.00;84.10;;;;;;5040049;28;20032;-67
2022/03/08 09:06:29;;;;;;;40.83;26.60;;;9.00;84.30;;;;;;5046603;28;20035;-67
2022/03/08 09:08:56;;;;;;;42.45;27.55;;;9.10;83.50;;;;;;5046054;28;20088;-67
2022/03/08 09:11:22;;;;;;;44.60;27.13;;;9.20;83.40;;;;;;5048714;28;20021;-67
2022/03/08 09:13:48;;;;;;;40.33;27.23;;;9.20;82.80;;;;;;5049407;28;20765;-67
2022/03/08 09:16:17;;;;;;;43.17;28.20;;;9.20;83.90;;;;;;5046121;28;20055;-67
2022/03/08 09:18:43;;;;;;;43.97;26.88;;;9.20;85.00;;;;;;5045558;28;20021;-67
2022/03/08 09:21:10;;;;;;;50.55;26.95;;;9.20;83.80;;;;;;5046253;28;20029;-67
2022/03/08 09:23:37;;;;;;;42.78;27.08;;;9.30;85.00;;;;;;5046733;28;20036;-67
2022/03/08 09:26:03;;;;;;;41.42;26.98;;;9.30;84.20;;;;;;5050388;28;20538;-67
2022/03/08 09:28:29;;;;;;;42.53;27.38;;;9.40;83.90;;;;;;5046115;28;20025;-67
2022/03/08 09:30:55;;;;;;;49.05;27.20;;;9.40;83.40;;;;;;5043614;28;20432;-67
2022/03/08 09:33:21;;;;;;;44.30;26.95;;;9.50;82.80;;;;;;5047638;28;20086;-67
2022/03/08 09:35:47;;;;;;;40.95;27.13;;;9.60;83.00;;;;;;5047747;28;20397;-67
2022/03/08 09:38:13;;;;;;;42.08;25.42;;;9.50;83.00;;;;;;5051724;28;20370;-67
2022/03/08 09:40:40;;;;;;;36.15;26.85;;;9.40;82.80;;;;;;5050924;28;20389;-67
2022/03/08 09:43:06;;;;;;;40.13;26.73;;;9.50;82.70;;;;;;5046465;28;20192;-67
2022/03/08 09:45:33;;;;;;;39.17;26.55;;;9.50;82.10;;;;;;5048874;28;20056;-67
2022/03/08 09:48:01;;;;;;;36.55;26.00;;;9.40;83.40;;;;;;5047469;28;20026;-67
2022/03/08 09:50:29;;;;;;;39.88;26.10;;;9.40;83.30;;;;;;5049732;28;20044;-67
2022/03/08 09:52:57;;;;;;;37.20;26.52;;;9.50;83.40;;;;;;5050863;28;20025;-67
2022/03/08 09:55:25;;;;;;;43.72;27.20;;;9.60;82.80;;;;;;5046739;28;20112;-67
2022/03/08 09:57:52;;;;;;;38.33;24.40;;;9.60;81.40;;;;;;5047054;28;20024;-67
2022/03/08 10:00:19;;;;;;;38.83;26.45;;;9.60;82.30;;;;;;5047892;28;20048;-67
2022/03/08 10:02:56;;;;;;;39.67;26.38;;;9.70;82.30;;;;;;5047190;28;20040;-67
2022/03/08 10:05:27;;;;;;;39.53;26.25;;;9.60;83.40;;;;;;5047427;28;20116;-67
2022/03/08 10:08:19;;;;;;;37.70;25.52;;;9.60;83.90;;;;;;5048225;28;20515;-67
2022/03/08 10:10:58;;;;;;;45.63;26.75;;;9.60;83.30;;;;;;5050746;28;20017;-67
2022/03/08 10:13:34;;;;;;;43.45;26.30;;;9.70;84.10;;;;;;5045968;28;20053;-67
2022/03/08 10:16:13;;;;;;;48.72;26.48;;;9.80;83.10;;;;;;5043796;28;20374;-67
2022/03/08 10:18:46;;;;;;;44.22;28.05;;;9.90;82.70;;;;;;5051578;28;20532;-67
2022/03/08 10:21:35;;;;;;;41.95;28.42;;;10.10;82.50;;;;;;5050620;28;20048;-67
2022/03/08 10:24:22;;;;;;;40.88;27.38;;;10.10;83.40;;;;;;5050360;28;20048;-67
2022/03/08 10:26:55;;;;;;;41.95;27.00;;;10.00;82.90;;;;;;5050621;28;20087;-68
2022/03/08 10:29:38;;;;;;;45.03;27.08;;;10.00;82.30;;;;;;5046338;28;20096;-67
2022/03/08 10:32:18;;;;;;;47.60;27.13;;;10.00;83.40;;;;;;5045674;28;20064;-67
2022/03/08 10:34:46;;;;;;;44.53;25.48;;;10.00;85.70;;;;;;5046071;28;20036;-67
2022/03/08 10:37:17;;;;;;;37.35;24.23;;;10.10;84.10;;;;;;5045741;28;20033;-67
2022/03/08 10:40:00;;;;;;;37.83;24.95;;;10.00;84.90;;;;;;5045182;28;20057;-67
2022/03/08 10:42:31;;;;;;;42.38;26.13;;;10.00;84.50;;;;;;5049285;28;20108;-67
2022/03/08 10:45:16;;;;;;;41.30;24.35;;;10.00;85.00;;;;;;5049962;28;20021;-67
2022/03/08 10:47:46;;;;;;;43.90;26.50;;;10.10;83.10;;;;;;5050001;28;20520;-67
2022/03/08 10:50:14;;;;;;;40.08;24.23;;;10.10;84.00;;;;;;5045086;28;20033;-67
2022/03/08 10:52:43;;;;;;;32.53;22.83;;;10.10;84.00;;;;;;5045726;28;20021;-67
2022/03/08 10:55:19;;;;;;;34.03;20.90;;;10.20;83.20;;;;;;5044345;28;20064;-67
2022/03/08 10:58:06;;;;;;;37.00;23.42;;;10.30;83.40;;;;;;5044453;28;20024;-67
2022/03/08 11:00:38;;;;;;;38.40;23.65;;;10.30;84.20;;;;;;5046597;28;20156;-67
2022/03/08 11:03:13;;;;;;;35.53;23.48;;;10.20;84.90;;;;;;5045687;28;20508;-67
2022/03/08 11:05:47;;;;;;;35.83;23.23;;;10.30;85.10;;;;;;5049554;28;20411;-67
2022/03/08 11:08:15;;;;;;;35.53;21.45;;;10.40;85.40;;;;;;5051742;28;20045;-67
2022/03/08 11:10:42;;;;;;;35.00;22.35;;;10.40;86.80;;;;;;5047100;28;20029;-67
2022/03/08 11:13:09;;;;;;;34.88;22.60;;;10.50;84.70;;;;;;5044473;28;20120;-67
2022/03/08 11:15:38;;;;;;;29.55;20.17;;;10.60;85.20;;;;;;5045112;28;20017;-67
2022/03/08 11:18:07;;;;;;;32.03;20.10;;;10.60;83.00;;;;;;5044995;28;20112;-67
2022/03/08 11:20:34;;;;;;;33.67;22.25;;;10.70;82.50;;;;;;5048716;28;20409;-67
2022/03/08 11:23:01;;;;;;;37.42;23.25;;;10.80;82.50;;;;;;5049497;28;20025;-67
2022/03/08 11:25:30;;;;;;;31.73;19.88;;;10.80;84.30;;;;;;5054195;28;20497;-67
2022/03/08 11:27:56;;;;;;;32.53;20.63;;;10.90;82.70;;;;;;5040213;28;20032;-67
2022/03/08 11:30:50;;;;;;;32.42;20.70;;;10.90;85.00;;;;;;5046212;28;20029;-67
2022/03/08 11:33:34;;;;;;;30.00;20.20;;;11.00;83.30;;;;;;5044044;28;20060;-67
2022/03/08 11:36:12;;;;;;;34.10;21.00;;;11.20;84.60;;;;;;5052718;28;20021;-68
2022/03/08 11:38:38;;;;;;;30.77;19.70;;;11.20;83.70;;;;;;5046759;28;20036;-67
2022/03/08 11:41:03;;;;;;;32.35;21.05;;;11.20;82.50;;;;;;5046202;28;20037;-68
2022/03/08 11:43:44;;;;;;;38.85;22.63;;;11.30;84.80;;;;;;5045558;28;20108;-69
2022/03/08 11:46:28;;;;;;;32.17;20.90;;;11.40;82.10;;;;;;5043561;28;20402;-69
2022/03/08 11:48:56;;;;;;;33.80;21.73;;;11.40;83.70;;;;;;5067343;28;20055;-69
2022/03/08 11:51:24;;;;;;;35.78;21.40;;;11.50;81.50;;;;;;5045886;28;20060;-69
2022/03/08 11:54:04;;;;;;;31.70;20.17;;;11.50;80.90;;;;;;5047966;28;20032;-69
2022/03/08 11:56:46;;;;;;;35.10;21.30;;;11.50;82.70;;;;;;5050021;28;20021;-69
2022/03/08 11:59:13;;;;;;;32.40;21.42;;;11.50;82.70;;;;;;5048408;28;20044;-69
2022/03/08 12:01:38;;;;;;;35.63;22.20;;;11.60;82.90;;;;;;5045181;28;20056;-69
2022/03/08 12:04:13;;;;;;;32.45;21.27;;;11.60;83.90;;;;;;5044297;28;20064;-69
2022/03/08 12:06:58;;;;;;;35.20;21.77;;;11.60;83.60;;;;;;5041752;28;20504;-68
2022/03/08 12:09:25;;;;;;;35.55;20.90;;;11.60;83.90;;;;;;5043592;28;20040;-69
2022/03/08 12:12:00;;;;;;;31.90;20.85;;;11.50;86.60;;;;;;5052183;28;20112;-69
2022/03/08 12:14:30;;;;;;;33.47;20.80;;;11.40;85.50;;;;;;5053937;28;20092;-69
2022/03/08 12:17:17;;;;;;;33.63;20.55;;;11.40;88.50;;;;;;5048034;28;20025;-69
2022/03/08 12:19:49;;;;;;;35.10;21.60;;;11.50;85.80;;;;;;5047928;28;20051;-68
2022/03/08 12:22:17;;;;;;;29.48;20.42;;;11.50;86.10;;;;;;5044054;28;20129;-68
2022/03/08 12:24:47;;;;;;;30.02;20.10;;;11.50;87.10;;;;;;5049146;28;20553;-68
2022/03/08 12:27:13;;;;;;;33.17;20.50;;;11.50;87.10;;;;;;5052278;28;20148;-68
2022/03/08 12:30:02;;;;;;;31.30;19.58;;;11.60;88.30;;;;;;5048695;28;20116;-68
2022/03/08 12:32:34;;;;;;;32.33;20.17;;;11.60;88.10;;;;;;5047893;28;20033;-68
2022/03/08 12:35:14;;;;;;;32.42;20.08;;;11.60;88.70;;;;;;5048015;28;20025;-68